sensor_id;sensor_type;location;lat;lon;timestamp;P1;durP1;ratioP1;P2;durP2;ratioP2
29728;SDS011;20055;51.498;11.960;2022-12-07T00:00:33;22.17;;;10.32;;
29728;SDS011;20055;51.498;11.960;2022-12-07T00:02:59;21.83;;;10.45;;
29728;SDS011;20055;51.498;11.960;2022-12-07T00:05:26;22.85;;;11.38;;
29728;SDS011;20055;51.498;11.960;2022-12-07T00:07:52;23.58;;;11.20;;
29728;SDS011;20055;51.498;11.960;2022-12-07T00:10:19;20.48;;;10.77;;
29728;SDS011;20055;51.498;11.960;2022-12-07T00:12:45;25.92;;;12.18;;
29728;SDS011;20055;51.498;11.960;2022-12-07T00:15:13;24.98;;;12.73;;
29728;SDS011;20055;51.498;11.960;2022-12-07T00:17:39;28.73;;;13.05;;
29728;SDS011;20055;51.498;11.960;2022-12-07T00:20:06;24.83;;;11.18;;
29728;SDS011;20055;51.498;11.960;2022-12-07T00:22:32;30.00;;;13.02;;
29728;SDS011;20055;51.498;11.960;2022-12-07T00:24:59;28.13;;;13.98;;
29728;SDS011;20055;51.498;11.960;2022-12-07T00:27:26;23.52;;;13.48;;
29728;SDS011;20055;51.498;11.960;2022-12-07T00:29:53;26.70;;;13.13;;
29728;SDS011;20055;51.498;11.960;2022-12-07T00:32:19;26.92;;;13.75;;
29728;SDS011;20055;51.498;11.960;2022-12-07T00:34:46;26.42;;;13.43;;
29728;SDS011;20055;51.498;11.960;2022-12-07T00:37:12;29.33;;;14.18;;
29728;SDS011;20055;51.498;11.960;2022-12-07T00:39:39;31.08;;;14.18;;
29728;SDS011;20055;51.498;11.960;2022-12-07T00:42:05;31.85;;;14.63;;
29728;SDS011;20055;51.498;11.960;2022-12-07T00:44:32;33.85;;;15.05;;
29728;SDS011;20055;51.498;11.960;2022-12-07T00:46:58;31.52;;;14.60;;
29728;SDS011;20055;51.498;11.960;2022-12-07T00:49:25;29.05;;;14.50;;
29728;SDS011;20055;51.498;11.960;2022-12-07T00:51:52;26.45;;;14.55;;
29728;SDS011;20055;51.498;11.960;2022-12-07T00:54:18;38.20;;;16.20;;
29728;SDS011;20055;51.498;11.960;2022-12-07T00:56:44;31.00;;;14.95;;
29728;SDS011;20055;51.498;11.960;2022-12-07T00:59:12;34.75;;;16.67;;
29728;SDS011;20055;51.498;11.960;2022-12-07T01:01:42;34.92;;;16.88;;
29728;SDS011;20055;51.498;11.960;2022-12-07T01:04:08;33.83;;;16.27;;
29728;SDS011;20055;51.498;11.960;2022-12-07T01:06:35;29.85;;;15.68;;
29728;SDS011;20055;51.498;11.960;2022-12-07T01:09:02;29.67;;;15.52;;
29728;SDS011;20055;51.498;11.960;2022-12-07T01:11:29;37.17;;;16.23;;
29728;SDS011;20055;51.498;11.960;2022-12-07T01:13:57;31.08;;;15.40;;
29728;SDS011;20055;51.498;11.960;2022-12-07T01:16:25;35.33;;;16.52;;
29728;SDS011;20055;51.498;11.960;2022-12-07T01:18:53;29.98;;;15.07;;
29728;SDS011;20055;51.498;11.960;2022-12-07T01:21:21;38.05;;;18.75;;
29728;SDS011;20055;51.498;11.960;2022-12-07T01:23:50;38.53;;;18.88;;
29728;SDS011;20055;51.498;11.960;2022-12-07T01:26:18;36.45;;;17.58;;
29728;SDS011;20055;51.498;11.960;2022-12-07T01:28:45;32.00;;;16.52;;
29728;SDS011;20055;51.498;11.960;2022-12-07T01:31:16;34.67;;;17.20;;
29728;SDS011;20055;51.498;11.960;2022-12-07T01:33:43;38.53;;;16.80;;
29728;SDS011;20055;51.498;11.960;2022-12-07T01:36:15;33.50;;;16.23;;
29728;SDS011;20055;51.498;11.960;2022-12-07T01:38:46;32.85;;;16.80;;
29728;SDS011;20055;51.498;11.960;2022-12-07T01:41:17;35.05;;;16.58;;
29728;SDS011;20055;51.498;11.960;2022-12-07T01:46:29;35.67;;;16.92;;
29728;SDS011;20055;51.498;11.960;2022-12-07T01:48:55;37.35;;;17.02;;
29728;SDS011;20055;51.498;11.960;2022-12-07T01:51:22;30.73;;;16.35;;
29728;SDS011;20055;51.498;11.960;2022-12-07T01:53:48;34.38;;;17.30;;
29728;SDS011;20055;51.498;11.960;2022-12-07T01:56:17;34.50;;;16.13;;
29728;SDS011;20055;51.498;11.960;2022-12-07T01:58:45;35.50;;;16.83;;
29728;SDS011;20055;51.498;11.960;2022-12-07T02:01:12;36.63;;;16.42;;
29728;SDS011;20055;51.498;11.960;2022-12-07T02:03:39;33.45;;;16.45;;
29728;SDS011;20055;51.498;11.960;2022-12-07T02:06:06;35.63;;;16.55;;
29728;SDS011;20055;51.498;11.960;2022-12-07T02:08:34;32.05;;;15.93;;
29728;SDS011;20055;51.498;11.960;2022-12-07T02:11:02;30.95;;;15.75;;
29728;SDS011;20055;51.498;11.960;2022-12-07T02:13:30;38.05;;;17.83;;
29728;SDS011;20055;51.498;11.960;2022-12-07T02:34:31;36.13;;;17.75;;
29728;SDS011;20055;51.498;11.960;2022-12-07T02:37:00;33.60;;;16.55;;
29728;SDS011;20055;51.498;11.960;2022-12-07T02:39:47;36.75;;;16.73;;
29728;SDS011;20055;51.498;11.960;2022-12-07T02:42:19;40.45;;;16.15;;
29728;SDS011;20055;51.498;11.960;2022-12-07T02:44:50;40.05;;;18.45;;
29728;SDS011;20055;51.498;11.960;2022-12-07T02:47:18;32.08;;;16.08;;
29728;SDS011;20055;51.498;11.960;2022-12-07T02:49:46;35.55;;;16.60;;
29728;SDS011;20055;51.498;11.960;2022-12-07T02:52:13;36.83;;;17.50;;
29728;SDS011;20055;51.498;11.960;2022-12-07T02:54:40;34.45;;;16.20;;
29728;SDS011;20055;51.498;11.960;2022-12-07T02:57:10;37.08;;;17.25;;
29728;SDS011;20055;51.498;11.960;2022-12-07T03:02:18;38.33;;;17.83;;
29728;SDS011;20055;51.498;11.960;2022-12-07T03:07:39;31.02;;;16.38;;
29728;SDS011;20055;51.498;11.960;2022-12-07T03:10:13;34.08;;;16.25;;
29728;SDS011;20055;51.498;11.960;2022-12-07T03:15:21;33.60;;;16.00;;
29728;SDS011;20055;51.498;11.960;2022-12-07T03:17:48;29.73;;;15.10;;
29728;SDS011;20055;51.498;11.960;2022-12-07T03:20:16;35.42;;;15.65;;
29728;SDS011;20055;51.498;11.960;2022-12-07T03:22:44;32.58;;;14.68;;
29728;SDS011;20055;51.498;11.960;2022-12-07T03:25:13;35.83;;;15.63;;
29728;SDS011;20055;51.498;11.960;2022-12-07T03:27:43;33.03;;;14.82;;
29728;SDS011;20055;51.498;11.960;2022-12-07T03:30:17;32.03;;;15.57;;
29728;SDS011;20055;51.498;11.960;2022-12-07T03:38:02;37.47;;;14.85;;
29728;SDS011;20055;51.498;11.960;2022-12-07T03:40:35;34.35;;;14.73;;
29728;SDS011;20055;51.498;11.960;2022-12-07T03:43:03;30.52;;;15.93;;
29728;SDS011;20055;51.498;11.960;2022-12-07T03:45:37;28.20;;;14.15;;
29728;SDS011;20055;51.498;11.960;2022-12-07T03:50:32;25.33;;;14.00;;
29728;SDS011;20055;51.498;11.960;2022-12-07T03:53:04;33.60;;;15.05;;
29728;SDS011;20055;51.498;11.960;2022-12-07T03:55:39;25.40;;;13.25;;
29728;SDS011;20055;51.498;11.960;2022-12-07T03:58:07;28.70;;;13.88;;
29728;SDS011;20055;51.498;11.960;2022-12-07T04:00:35;25.10;;;13.30;;
29728;SDS011;20055;51.498;11.960;2022-12-07T04:03:02;26.60;;;13.00;;
29728;SDS011;20055;51.498;11.960;2022-12-07T04:05:28;29.73;;;13.20;;
29728;SDS011;20055;51.498;11.960;2022-12-07T04:07:55;28.77;;;13.77;;
29728;SDS011;20055;51.498;11.960;2022-12-07T04:10:21;29.33;;;14.57;;
29728;SDS011;20055;51.498;11.960;2022-12-07T04:12:48;27.33;;;12.38;;
29728;SDS011;20055;51.498;11.960;2022-12-07T04:15:14;30.75;;;13.10;;
29728;SDS011;20055;51.498;11.960;2022-12-07T04:17:45;30.73;;;13.95;;
29728;SDS011;20055;51.498;11.960;2022-12-07T04:20:11;22.58;;;11.85;;
29728;SDS011;20055;51.498;11.960;2022-12-07T04:22:39;28.55;;;13.23;;
29728;SDS011;20055;51.498;11.960;2022-12-07T04:25:05;27.77;;;13.02;;
29728;SDS011;20055;51.498;11.960;2022-12-07T04:27:32;22.80;;;11.75;;
29728;SDS011;20055;51.498;11.960;2022-12-07T04:29:58;22.65;;;11.50;;
29728;SDS011;20055;51.498;11.960;2022-12-07T04:32:25;25.48;;;12.85;;
29728;SDS011;20055;51.498;11.960;2022-12-07T04:34:51;25.42;;;11.52;;
29728;SDS011;20055;51.498;11.960;2022-12-07T04:37:18;26.05;;;11.98;;
29728;SDS011;20055;51.498;11.960;2022-12-07T04:39:44;22.33;;;12.15;;
29728;SDS011;20055;51.498;11.960;2022-12-07T04:42:11;23.17;;;11.60;;
29728;SDS011;20055;51.498;11.960;2022-12-07T04:44:38;26.50;;;11.30;;
29728;SDS011;20055;51.498;11.960;2022-12-07T04:47:05;28.55;;;12.80;;
29728;SDS011;20055;51.498;11.960;2022-12-07T04:49:32;20.63;;;10.63;;
29728;SDS011;20055;51.498;11.960;2022-12-07T04:51:58;25.08;;;11.07;;
29728;SDS011;20055;51.498;11.960;2022-12-07T04:54:25;20.73;;;10.80;;
29728;SDS011;20055;51.498;11.960;2022-12-07T04:56:51;17.50;;;9.80;;
29728;SDS011;20055;51.498;11.960;2022-12-07T04:59:18;19.33;;;10.70;;
29728;SDS011;20055;51.498;11.960;2022-12-07T05:01:44;27.13;;;14.80;;
29728;SDS011;20055;51.498;11.960;2022-12-07T05:04:11;24.38;;;12.35;;
29728;SDS011;20055;51.498;11.960;2022-12-07T05:06:37;17.80;;;9.95;;
29728;SDS011;20055;51.498;11.960;2022-12-07T05:09:04;25.75;;;12.10;;
29728;SDS011;20055;51.498;11.960;2022-12-07T05:11:31;21.92;;;10.25;;
29728;SDS011;20055;51.498;11.960;2022-12-07T05:14:05;17.30;;;9.88;;
29728;SDS011;20055;51.498;11.960;2022-12-07T05:16:31;19.88;;;10.60;;
29728;SDS011;20055;51.498;11.960;2022-12-07T05:18:58;19.85;;;10.95;;
29728;SDS011;20055;51.498;11.960;2022-12-07T05:21:25;20.52;;;10.77;;
29728;SDS011;20055;51.498;11.960;2022-12-07T05:23:51;20.00;;;10.45;;
29728;SDS011;20055;51.498;11.960;2022-12-07T05:26:18;18.38;;;10.77;;
29728;SDS011;20055;51.498;11.960;2022-12-07T05:28:45;22.30;;;10.18;;
29728;SDS011;20055;51.498;11.960;2022-12-07T05:31:11;22.52;;;11.20;;
29728;SDS011;20055;51.498;11.960;2022-12-07T05:33:38;19.40;;;11.00;;
29728;SDS011;20055;51.498;11.960;2022-12-07T05:36:04;21.90;;;11.38;;
29728;SDS011;20055;51.498;11.960;2022-12-07T05:38:33;20.38;;;11.77;;
29728;SDS011;20055;51.498;11.960;2022-12-07T05:41:00;23.50;;;11.55;;
29728;SDS011;20055;51.498;11.960;2022-12-07T05:43:28;20.33;;;10.93;;
29728;SDS011;20055;51.498;11.960;2022-12-07T05:45:55;37.90;;;11.75;;
29728;SDS011;20055;51.498;11.960;2022-12-07T05:48:21;26.35;;;15.25;;
29728;SDS011;20055;51.498;11.960;2022-12-07T05:50:48;24.65;;;11.98;;
29728;SDS011;20055;51.498;11.960;2022-12-07T05:53:15;20.45;;;10.40;;
29728;SDS011;20055;51.498;11.960;2022-12-07T05:55:42;15.00;;;9.23;;
29728;SDS011;20055;51.498;11.960;2022-12-07T05:58:08;20.80;;;10.88;;
29728;SDS011;20055;51.498;11.960;2022-12-07T06:00:57;22.02;;;11.55;;
29728;SDS011;20055;51.498;11.960;2022-12-07T06:03:23;20.90;;;11.50;;
29728;SDS011;20055;51.498;11.960;2022-12-07T06:05:51;24.52;;;11.70;;
29728;SDS011;20055;51.498;11.960;2022-12-07T06:08:18;22.73;;;11.90;;
29728;SDS011;20055;51.498;11.960;2022-12-07T06:10:46;22.40;;;12.93;;
29728;SDS011;20055;51.498;11.960;2022-12-07T06:13:33;23.63;;;12.35;;
29728;SDS011;20055;51.498;11.960;2022-12-07T06:15:59;26.15;;;12.73;;
29728;SDS011;20055;51.498;11.960;2022-12-07T06:18:26;27.77;;;14.25;;
29728;SDS011;20055;51.498;11.960;2022-12-07T06:20:52;23.40;;;13.38;;
29728;SDS011;20055;51.498;11.960;2022-12-07T06:23:19;30.15;;;13.70;;
29728;SDS011;20055;51.498;11.960;2022-12-07T06:25:45;26.25;;;14.02;;
29728;SDS011;20055;51.498;11.960;2022-12-07T06:28:12;27.38;;;12.63;;
29728;SDS011;20055;51.498;11.960;2022-12-07T06:30:39;28.52;;;14.82;;
29728;SDS011;20055;51.498;11.960;2022-12-07T06:33:05;27.30;;;14.32;;
29728;SDS011;20055;51.498;11.960;2022-12-07T06:35:32;22.88;;;12.90;;
29728;SDS011;20055;51.498;11.960;2022-12-07T06:37:59;32.63;;;14.63;;
29728;SDS011;20055;51.498;11.960;2022-12-07T06:40:25;27.10;;;13.60;;
29728;SDS011;20055;51.498;11.960;2022-12-07T06:42:52;25.73;;;12.95;;
29728;SDS011;20055;51.498;11.960;2022-12-07T06:45:18;27.58;;;14.93;;
29728;SDS011;20055;51.498;11.960;2022-12-07T06:47:45;28.33;;;14.48;;
29728;SDS011;20055;51.498;11.960;2022-12-07T06:50:11;29.35;;;13.23;;
29728;SDS011;20055;51.498;11.960;2022-12-07T06:52:38;28.02;;;14.98;;
29728;SDS011;20055;51.498;11.960;2022-12-07T06:55:04;27.77;;;14.52;;
29728;SDS011;20055;51.498;11.960;2022-12-07T06:57:32;30.48;;;15.07;;
29728;SDS011;20055;51.498;11.960;2022-12-07T06:59:59;31.48;;;15.65;;
29728;SDS011;20055;51.498;11.960;2022-12-07T07:02:25;30.27;;;14.15;;
29728;SDS011;20055;51.498;11.960;2022-12-07T07:04:52;32.17;;;16.60;;
29728;SDS011;20055;51.498;11.960;2022-12-07T07:07:18;36.15;;;15.98;;
29728;SDS011;20055;51.498;11.960;2022-12-07T07:09:45;28.42;;;15.35;;
29728;SDS011;20055;51.498;11.960;2022-12-07T07:12:12;30.27;;;15.65;;
29728;SDS011;20055;51.498;11.960;2022-12-07T07:14:38;39.10;;;16.33;;
29728;SDS011;20055;51.498;11.960;2022-12-07T07:17:05;39.78;;;18.17;;
29728;SDS011;20055;51.498;11.960;2022-12-07T07:19:31;38.20;;;18.00;;
29728;SDS011;20055;51.498;11.960;2022-12-07T07:21:58;29.92;;;15.10;;
29728;SDS011;20055;51.498;11.960;2022-12-07T07:24:25;31.98;;;15.77;;
29728;SDS011;20055;51.498;11.960;2022-12-07T07:26:51;44.85;;;21.30;;
29728;SDS011;20055;51.498;11.960;2022-12-07T07:29:18;35.50;;;17.92;;
29728;SDS011;20055;51.498;11.960;2022-12-07T07:31:44;34.55;;;17.73;;
29728;SDS011;20055;51.498;11.960;2022-12-07T07:34:11;31.02;;;15.75;;
29728;SDS011;20055;51.498;11.960;2022-12-07T07:36:38;30.92;;;15.15;;
29728;SDS011;20055;51.498;11.960;2022-12-07T07:39:04;29.48;;;14.27;;
29728;SDS011;20055;51.498;11.960;2022-12-07T07:41:31;32.47;;;15.05;;
29728;SDS011;20055;51.498;11.960;2022-12-07T07:43:58;26.23;;;14.27;;
29728;SDS011;20055;51.498;11.960;2022-12-07T07:46:24;35.03;;;15.77;;
29728;SDS011;20055;51.498;11.960;2022-12-07T07:48:51;27.45;;;14.50;;
29728;SDS011;20055;51.498;11.960;2022-12-07T07:51:17;29.70;;;14.93;;
29728;SDS011;20055;51.498;11.960;2022-12-07T07:53:44;27.38;;;14.25;;
29728;SDS011;20055;51.498;11.960;2022-12-07T07:56:12;35.20;;;16.65;;
29728;SDS011;20055;51.498;11.960;2022-12-07T07:58:38;28.92;;;15.57;;
29728;SDS011;20055;51.498;11.960;2022-12-07T08:01:06;31.98;;;15.57;;
29728;SDS011;20055;51.498;11.960;2022-12-07T08:03:33;28.88;;;14.75;;
29728;SDS011;20055;51.498;11.960;2022-12-07T08:05:59;35.28;;;15.73;;
29728;SDS011;20055;51.498;11.960;2022-12-07T08:08:26;34.78;;;13.93;;
29728;SDS011;20055;51.498;11.960;2022-12-07T08:10:53;26.50;;;14.45;;
29728;SDS011;20055;51.498;11.960;2022-12-07T08:13:20;28.23;;;12.93;;
29728;SDS011;20055;51.498;11.960;2022-12-07T08:15:47;29.88;;;13.80;;
29728;SDS011;20055;51.498;11.960;2022-12-07T08:18:14;31.92;;;13.82;;
29728;SDS011;20055;51.498;11.960;2022-12-07T08:20:41;33.40;;;14.50;;
29728;SDS011;20055;51.498;11.960;2022-12-07T08:23:08;33.35;;;12.80;;
29728;SDS011;20055;51.498;11.960;2022-12-07T08:25:36;44.22;;;17.35;;
29728;SDS011;20055;51.498;11.960;2022-12-07T08:28:02;33.58;;;15.57;;
29728;SDS011;20055;51.498;11.960;2022-12-07T08:30:29;37.88;;;13.82;;
29728;SDS011;20055;51.498;11.960;2022-12-07T08:32:56;42.90;;;17.70;;
29728;SDS011;20055;51.498;11.960;2022-12-07T08:35:23;36.10;;;14.98;;
29728;SDS011;20055;51.498;11.960;2022-12-07T08:37:49;41.75;;;18.05;;
29728;SDS011;20055;51.498;11.960;2022-12-07T08:40:16;41.42;;;17.25;;
29728;SDS011;20055;51.498;11.960;2022-12-07T08:42:48;41.58;;;18.52;;
29728;SDS011;20055;51.498;11.960;2022-12-07T08:45:15;37.90;;;17.50;;
29728;SDS011;20055;51.498;11.960;2022-12-07T08:47:44;38.60;;;17.13;;
29728;SDS011;20055;51.498;11.960;2022-12-07T08:50:12;51.10;;;21.75;;
29728;SDS011;20055;51.498;11.960;2022-12-07T08:52:38;35.78;;;17.15;;
29728;SDS011;20055;51.498;11.960;2022-12-07T08:55:05;42.35;;;19.13;;
29728;SDS011;20055;51.498;11.960;2022-12-07T08:57:32;37.13;;;17.85;;
29728;SDS011;20055;51.498;11.960;2022-12-07T09:00:01;32.60;;;14.30;;
29728;SDS011;20055;51.498;11.960;2022-12-07T09:02:27;27.77;;;14.68;;
29728;SDS011;20055;51.498;11.960;2022-12-07T09:04:54;26.80;;;12.70;;
29728;SDS011;20055;51.498;11.960;2022-12-07T09:07:20;22.73;;;10.65;;
29728;SDS011;20055;51.498;11.960;2022-12-07T09:09:47;24.00;;;10.73;;
29728;SDS011;20055;51.498;11.960;2022-12-07T09:12:13;20.50;;;9.00;;
29728;SDS011;20055;51.498;11.960;2022-12-07T09:14:40;23.13;;;8.25;;
29728;SDS011;20055;51.498;11.960;2022-12-07T09:17:08;17.20;;;8.65;;
29728;SDS011;20055;51.498;11.960;2022-12-07T09:19:34;27.85;;;10.85;;
29728;SDS011;20055;51.498;11.960;2022-12-07T09:22:01;21.75;;;9.65;;
29728;SDS011;20055;51.498;11.960;2022-12-07T09:24:27;19.55;;;9.80;;
29728;SDS011;20055;51.498;11.960;2022-12-07T09:26:54;20.75;;;10.90;;
29728;SDS011;20055;51.498;11.960;2022-12-07T09:29:21;21.42;;;10.40;;
29728;SDS011;20055;51.498;11.960;2022-12-07T09:31:47;26.33;;;11.20;;
29728;SDS011;20055;51.498;11.960;2022-12-07T09:34:13;25.42;;;12.23;;
29728;SDS011;20055;51.498;11.960;2022-12-07T09:36:40;31.58;;;11.77;;
29728;SDS011;20055;51.498;11.960;2022-12-07T09:39:08;26.90;;;11.98;;
29728;SDS011;20055;51.498;11.960;2022-12-07T09:41:37;24.27;;;12.55;;
29728;SDS011;20055;51.498;11.960;2022-12-07T09:44:05;27.60;;;12.68;;
29728;SDS011;20055;51.498;11.960;2022-12-07T09:46:36;26.70;;;12.10;;
29728;SDS011;20055;51.498;11.960;2022-12-07T09:49:03;31.90;;;13.40;;
29728;SDS011;20055;51.498;11.960;2022-12-07T09:51:30;37.35;;;13.02;;
29728;SDS011;20055;51.498;11.960;2022-12-07T09:53:57;27.83;;;12.65;;
29728;SDS011;20055;51.498;11.960;2022-12-07T09:56:25;30.80;;;11.63;;
29728;SDS011;20055;51.498;11.960;2022-12-07T09:58:54;23.52;;;11.68;;
29728;SDS011;20055;51.498;11.960;2022-12-07T10:01:22;22.70;;;11.05;;
29728;SDS011;20055;51.498;11.960;2022-12-07T10:03:50;25.38;;;11.13;;
29728;SDS011;20055;51.498;11.960;2022-12-07T10:06:17;19.52;;;9.93;;
29728;SDS011;20055;51.498;11.960;2022-12-07T10:08:44;31.25;;;11.50;;
29728;SDS011;20055;51.498;11.960;2022-12-07T10:11:11;24.23;;;10.45;;
29728;SDS011;20055;51.498;11.960;2022-12-07T10:13:38;30.95;;;11.80;;
29728;SDS011;20055;51.498;11.960;2022-12-07T10:16:05;29.25;;;11.20;;
29728;SDS011;20055;51.498;11.960;2022-12-07T10:18:36;22.08;;;10.15;;
29728;SDS011;20055;51.498;11.960;2022-12-07T10:24:00;25.70;;;10.02;;
29728;SDS011;20055;51.498;11.960;2022-12-07T10:28:54;18.83;;;9.65;;
29728;SDS011;20055;51.498;11.960;2022-12-07T10:31:21;21.15;;;9.98;;
29728;SDS011;20055;51.498;11.960;2022-12-07T10:33:55;21.65;;;8.88;;
29728;SDS011;20055;51.498;11.960;2022-12-07T10:36:33;24.05;;;10.48;;
29728;SDS011;20055;51.498;11.960;2022-12-07T10:39:11;21.08;;;9.82;;
29728;SDS011;20055;51.498;11.960;2022-12-07T10:41:52;17.73;;;9.10;;
29728;SDS011;20055;51.498;11.960;2022-12-07T10:44:23;25.35;;;8.60;;
29728;SDS011;20055;51.498;11.960;2022-12-07T10:54:48;17.58;;;7.07;;
29728;SDS011;20055;51.498;11.960;2022-12-07T11:00:07;12.80;;;5.47;;
29728;SDS011;20055;51.498;11.960;2022-12-07T11:05:14;12.48;;;6.30;;
29728;SDS011;20055;51.498;11.960;2022-12-07T11:10:18;15.32;;;6.32;;
29728;SDS011;20055;51.498;11.960;2022-12-07T11:18:14;20.13;;;7.15;;
29728;SDS011;20055;51.498;11.960;2022-12-07T11:21:06;21.92;;;8.63;;
29728;SDS011;20055;51.498;11.960;2022-12-07T11:26:07;15.65;;;6.90;;
29728;SDS011;20055;51.498;11.960;2022-12-07T11:36:41;16.67;;;7.28;;
29728;SDS011;20055;51.498;11.960;2022-12-07T11:39:20;16.77;;;7.47;;
29728;SDS011;20055;51.498;11.960;2022-12-07T11:41:54;11.73;;;6.05;;
29728;SDS011;20055;51.498;11.960;2022-12-07T11:47:16;20.63;;;7.53;;
29728;SDS011;20055;51.498;11.960;2022-12-07T11:52:45;21.25;;;6.03;;
29728;SDS011;20055;51.498;11.960;2022-12-07T11:55:57;26.10;;;5.65;;
29728;SDS011;20055;51.498;11.960;2022-12-07T11:58:05;16.63;;;6.20;;
29728;SDS011;20055;51.498;11.960;2022-12-07T12:00:37;13.20;;;5.85;;
29728;SDS011;20055;51.498;11.960;2022-12-07T12:03:15;12.43;;;4.75;;
29728;SDS011;20055;51.498;11.960;2022-12-07T12:05:49;12.40;;;4.78;;
29728;SDS011;20055;51.498;11.960;2022-12-07T12:10:49;7.18;;;3.85;;
29728;SDS011;20055;51.498;11.960;2022-12-07T12:19:10;6.68;;;3.53;;
29728;SDS011;20055;51.498;11.960;2022-12-07T12:21:42;7.28;;;2.50;;
29728;SDS011;20055;51.498;11.960;2022-12-07T12:24:12;10.27;;;3.10;;
29728;SDS011;20055;51.498;11.960;2022-12-07T12:26:41;6.80;;;2.60;;
29728;SDS011;20055;51.498;11.960;2022-12-07T12:32:06;5.47;;;2.38;;
29728;SDS011;20055;51.498;11.960;2022-12-07T12:42:43;8.52;;;2.97;;
29728;SDS011;20055;51.498;11.960;2022-12-07T12:45:17;6.85;;;2.38;;
29728;SDS011;20055;51.498;11.960;2022-12-07T12:50:33;5.32;;;3.20;;
29728;SDS011;20055;51.498;11.960;2022-12-07T12:53:02;7.68;;;3.10;;
29728;SDS011;20055;51.498;11.960;2022-12-07T12:55:45;6.35;;;2.67;;
29728;SDS011;20055;51.498;11.960;2022-12-07T13:00:48;5.53;;;3.03;;
29728;SDS011;20055;51.498;11.960;2022-12-07T13:03:34;8.98;;;2.70;;
29728;SDS011;20055;51.498;11.960;2022-12-07T13:06:18;8.82;;;3.92;;
29728;SDS011;20055;51.498;11.960;2022-12-07T13:08:45;7.43;;;3.25;;
29728;SDS011;20055;51.498;11.960;2022-12-07T13:11:16;7.70;;;3.05;;
29728;SDS011;20055;51.498;11.960;2022-12-07T13:13:44;10.85;;;3.50;;
29728;SDS011;20055;51.498;11.960;2022-12-07T13:18:37;6.03;;;2.92;;
29728;SDS011;20055;51.498;11.960;2022-12-07T13:26:18;8.65;;;3.25;;
29728;SDS011;20055;51.498;11.960;2022-12-07T13:28:52;12.52;;;3.90;;
29728;SDS011;20055;51.498;11.960;2022-12-07T13:31:32;15.23;;;3.92;;
29728;SDS011;20055;51.498;11.960;2022-12-07T13:34:00;6.30;;;3.22;;
29728;SDS011;20055;51.498;11.960;2022-12-07T13:36:27;9.10;;;4.50;;
29728;SDS011;20055;51.498;11.960;2022-12-07T13:41:41;7.55;;;3.72;;
29728;SDS011;20055;51.498;11.960;2022-12-07T13:44:12;12.80;;;3.67;;
29728;SDS011;20055;51.498;11.960;2022-12-07T13:46:43;9.18;;;3.55;;
29728;SDS011;20055;51.498;11.960;2022-12-07T13:51:44;10.23;;;3.28;;
29728;SDS011;20055;51.498;11.960;2022-12-07T13:54:12;7.10;;;3.40;;
29728;SDS011;20055;51.498;11.960;2022-12-07T13:56:39;9.07;;;3.30;;
29728;SDS011;20055;51.498;11.960;2022-12-07T13:59:39;11.85;;;3.17;;
29728;SDS011;20055;51.498;11.960;2022-12-07T14:01:59;15.35;;;3.45;;
29728;SDS011;20055;51.498;11.960;2022-12-07T14:04:32;6.00;;;2.40;;
29728;SDS011;20055;51.498;11.960;2022-12-07T14:07:00;11.00;;;3.03;;
29728;SDS011;20055;51.498;11.960;2022-12-07T14:09:28;8.15;;;3.13;;
29728;SDS011;20055;51.498;11.960;2022-12-07T14:11:56;7.60;;;2.80;;
29728;SDS011;20055;51.498;11.960;2022-12-07T14:14:24;7.80;;;2.90;;
29728;SDS011;20055;51.498;11.960;2022-12-07T14:16:55;9.77;;;2.88;;
29728;SDS011;20055;51.498;11.960;2022-12-07T14:19:41;6.55;;;2.60;;
29728;SDS011;20055;51.498;11.960;2022-12-07T14:22:08;8.93;;;3.03;;
29728;SDS011;20055;51.498;11.960;2022-12-07T14:24:42;8.45;;;3.13;;
29728;SDS011;20055;51.498;11.960;2022-12-07T14:27:22;11.02;;;2.47;;
29728;SDS011;20055;51.498;11.960;2022-12-07T14:29:51;6.20;;;2.60;;
29728;SDS011;20055;51.498;11.960;2022-12-07T14:32:22;6.75;;;2.70;;
29728;SDS011;20055;51.498;11.960;2022-12-07T14:35:07;10.93;;;2.78;;
29728;SDS011;20055;51.498;11.960;2022-12-07T14:37:36;10.68;;;2.70;;
29728;SDS011;20055;51.498;11.960;2022-12-07T14:40:03;10.32;;;3.05;;
29728;SDS011;20055;51.498;11.960;2022-12-07T14:42:30;12.38;;;3.35;;
29728;SDS011;20055;51.498;11.960;2022-12-07T14:44:57;8.30;;;3.50;;
29728;SDS011;20055;51.498;11.960;2022-12-07T14:47:24;6.57;;;3.20;;
29728;SDS011;20055;51.498;11.960;2022-12-07T14:49:51;13.05;;;3.95;;
29728;SDS011;20055;51.498;11.960;2022-12-07T14:52:21;14.80;;;5.15;;
29728;SDS011;20055;51.498;11.960;2022-12-07T14:54:49;13.57;;;3.97;;
29728;SDS011;20055;51.498;11.960;2022-12-07T14:57:15;13.50;;;3.38;;
29728;SDS011;20055;51.498;11.960;2022-12-07T14:59:42;7.68;;;3.40;;
29728;SDS011;20055;51.498;11.960;2022-12-07T15:02:09;9.68;;;4.68;;
29728;SDS011;20055;51.498;11.960;2022-12-07T15:04:36;11.13;;;3.50;;
29728;SDS011;20055;51.498;11.960;2022-12-07T15:07:04;17.50;;;4.00;;
29728;SDS011;20055;51.498;11.960;2022-12-07T15:09:30;13.25;;;3.85;;
29728;SDS011;20055;51.498;11.960;2022-12-07T15:11:57;12.52;;;3.55;;
29728;SDS011;20055;51.498;11.960;2022-12-07T15:14:24;12.57;;;3.58;;
29728;SDS011;20055;51.498;11.960;2022-12-07T15:16:50;21.27;;;3.80;;
29728;SDS011;20055;51.498;11.960;2022-12-07T15:19:18;9.45;;;3.42;;
29728;SDS011;20055;51.498;11.960;2022-12-07T15:21:45;11.70;;;3.47;;
29728;SDS011;20055;51.498;11.960;2022-12-07T15:24:12;7.93;;;3.00;;
29728;SDS011;20055;51.498;11.960;2022-12-07T15:26:38;20.52;;;4.72;;
29728;SDS011;20055;51.498;11.960;2022-12-07T15:29:07;14.88;;;5.00;;
29728;SDS011;20055;51.498;11.960;2022-12-07T15:31:34;15.93;;;4.70;;
29728;SDS011;20055;51.498;11.960;2022-12-07T15:34:01;15.95;;;4.63;;
29728;SDS011;20055;51.498;11.960;2022-12-07T15:36:28;12.30;;;4.10;;
29728;SDS011;20055;51.498;11.960;2022-12-07T15:38:55;13.18;;;4.47;;
29728;SDS011;20055;51.498;11.960;2022-12-07T15:41:22;20.05;;;7.57;;
29728;SDS011;20055;51.498;11.960;2022-12-07T15:43:49;20.38;;;6.82;;
29728;SDS011;20055;51.498;11.960;2022-12-07T15:46:35;5.70;;;3.00;;
29728;SDS011;20055;51.498;11.960;2022-12-07T15:49:03;13.18;;;3.63;;
29728;SDS011;20055;51.498;11.960;2022-12-07T15:51:29;11.77;;;2.90;;
29728;SDS011;20055;51.498;11.960;2022-12-07T15:53:57;5.72;;;2.72;;
29728;SDS011;20055;51.498;11.960;2022-12-07T15:56:24;5.10;;;2.58;;
29728;SDS011;20055;51.498;11.960;2022-12-07T15:58:50;13.05;;;3.53;;
29728;SDS011;20055;51.498;11.960;2022-12-07T16:01:17;8.13;;;2.72;;
29728;SDS011;20055;51.498;11.960;2022-12-07T16:03:44;5.68;;;2.42;;
29728;SDS011;20055;51.498;11.960;2022-12-07T16:06:11;8.65;;;4.18;;
29728;SDS011;20055;51.498;11.960;2022-12-07T16:08:41;15.25;;;5.15;;
29728;SDS011;20055;51.498;11.960;2022-12-07T16:11:08;5.70;;;2.95;;
29728;SDS011;20055;51.498;11.960;2022-12-07T16:13:34;6.93;;;3.70;;
29728;SDS011;20055;51.498;11.960;2022-12-07T16:16:05;11.27;;;3.55;;
29728;SDS011;20055;51.498;11.960;2022-12-07T16:18:31;17.98;;;4.55;;
29728;SDS011;20055;51.498;11.960;2022-12-07T16:20:58;6.03;;;2.67;;